createdAt,value
2022-08-25T00:00:24.283Z,101839.44
2022-08-25T00:02:55.268Z,101839.44
2022-08-25T00:05:32.108Z,101833.31
2022-08-25T00:08:06.678Z,101829.78
2022-08-25T00:10:42.534Z,101828.00
2022-08-25T00:13:18.158Z,101829.81
2022-08-25T00:15:48.480Z,101826.25
2022-08-25T00:18:19.849Z,101828.97
2022-08-25T00:20:50.170Z,101821.91
2022-08-25T00:23:20.913Z,101827.28
2022-08-25T00:25:51.021Z,101827.28
2022-08-25T00:28:23.250Z,101828.19
2022-08-25T00:30:53.960Z,101827.31
2022-08-25T00:33:23.887Z,101821.16
2022-08-25T00:35:54.809Z,101817.63
2022-08-25T00:38:24.840Z,101824.75
2022-08-25T00:41:08.341Z,101821.25
2022-08-25T00:43:52.100Z,101814.19
2022-08-25T00:46:25.696Z,101813.34
2022-08-25T00:49:03.488Z,101810.69
2022-08-25T00:51:40.275Z,101814.25
2022-08-25T00:54:13.808Z,101812.47
2022-08-25T00:56:45.406Z,101808.00
2022-08-25T00:59:19.312Z,101813.34
2022-08-25T01:01:49.530Z,101798.28
2022-08-25T01:04:19.863Z,101809.81
2022-08-25T01:06:51.943Z,101809.81
2022-08-25T01:09:22.766Z,101802.75
2022-08-25T01:11:52.932Z,101793.84
2022-08-25T01:14:27.946Z,101793.88
2022-08-25T01:17:00.668Z,101798.34
2022-08-25T01:19:36.451Z,101787.75
2022-08-25T01:22:08.990Z,101791.34
2022-08-25T01:24:46.954Z,101784.28
2022-08-25T01:27:17.919Z,101779.00
2022-08-25T01:29:48.118Z,101779.03
2022-08-25T01:32:18.341Z,101782.59
2022-08-25T01:34:51.959Z,101780.84
2022-08-25T01:37:24.724Z,101779.94
2022-08-25T01:39:54.925Z,101776.44
2022-08-25T01:42:41.641Z,101771.97
2022-08-25T01:45:13.130Z,101774.69
2022-08-25T01:47:43.016Z,101778.25
2022-08-25T01:50:13.443Z,101777.38
2022-08-25T01:52:57.300Z,101772.97
2022-08-25T01:55:29.561Z,101769.47
2022-08-25T01:58:01.594Z,101767.69
2022-08-25T02:00:35.018Z,101765.94
2022-08-25T02:03:05.008Z,101770.34
2022-08-25T02:05:41.602Z,101768.63
2022-08-25T02:08:15.938Z,101771.28
2022-08-25T02:10:45.735Z,101768.66
2022-08-25T02:13:15.993Z,101763.34
2022-08-25T02:15:54.166Z,101752.75
2022-08-25T02:18:28.662Z,101761.63
2022-08-25T02:21:01.914Z,101753.66
2022-08-25T02:23:40.298Z,101764.31
2022-08-25T02:26:10.636Z,101759.06
2022-08-25T02:28:41.926Z,101759.09
2022-08-25T02:31:11.943Z,101754.66
2022-08-25T02:33:42.092Z,101757.38
2022-08-25T02:36:14.880Z,101745.88
2022-08-25T02:38:48.738Z,101737.06
2022-08-25T02:41:21.089Z,101736.22
2022-08-25T02:43:52.331Z,101746.00
2022-08-25T02:46:29.017Z,101735.38
2022-08-25T02:48:58.987Z,101727.44
2022-08-25T02:51:36.840Z,101723.03
2022-08-25T02:54:10.305Z,101728.38
2022-08-25T02:56:41.352Z,101719.53
2022-08-25T02:59:11.605Z,101716.03
2022-08-25T03:01:41.472Z,101719.59
2022-08-25T03:04:14.489Z,101719.63
2022-08-25T03:06:44.414Z,101712.53
2022-08-25T03:09:19.350Z,101711.69
2022-08-25T03:11:52.526Z,101722.34
2022-08-25T03:14:22.448Z,101712.63
2022-08-25T03:16:52.370Z,101712.69
2022-08-25T03:19:28.838Z,101710.91
2022-08-25T03:22:03.090Z,101706.53
2022-08-25T03:24:39.362Z,101701.22
2022-08-25T03:27:11.955Z,101701.22
2022-08-25T03:29:43.424Z,101698.56
2022-08-25T03:32:13.385Z,101693.25
2022-08-25T03:34:44.139Z,101691.50
2022-08-25T03:37:14.049Z,101689.75
2022-08-25T03:39:46.800Z,101687.06
2022-08-25T03:42:24.957Z,101679.09
2022-08-25T03:44:54.800Z,101672.88
2022-08-25T03:47:25.734Z,101667.56
2022-08-25T03:49:56.327Z,101667.56
2022-08-25T03:52:31.044Z,101665.81
2022-08-25T03:55:05.554Z,101660.53
2022-08-25T03:57:44.251Z,101668.53
2022-08-25T04:00:16.658Z,101672.06
2022-08-25T04:02:51.073Z,101667.66
2022-08-25T04:05:21.490Z,101659.69
2022-08-25T04:07:51.900Z,101666.81
2022-08-25T04:10:24.913Z,101656.19
2022-08-25T04:12:56.248Z,101649.09
2022-08-25T04:15:30.252Z,101654.47
2022-08-25T04:18:00.491Z,101647.41
2022-08-25T04:20:35.596Z,101651.84
2022-08-25T04:23:08.687Z,101651.91
2022-08-25T04:25:46.255Z,101651.06
2022-08-25T04:28:16.054Z,101652.84
2022-08-25T04:30:51.450Z,101655.53
2022-08-25T04:33:24.203Z,101652.91
2022-08-25T04:35:54.195Z,101652.06
2022-08-25T04:38:32.396Z,101655.66
2022-08-25T04:41:12.516Z,101654.81
2022-08-25T04:43:49.329Z,101652.19
2022-08-25T04:46:21.284Z,101651.31
2022-08-25T04:48:52.844Z,101656.69
2022-08-25T04:51:30.686Z,101655.81
2022-08-25T04:54:09.601Z,101654.94
2022-08-25T04:56:44.042Z,101662.09
2022-08-25T04:59:19.027Z,101662.09
2022-08-25T05:01:52.476Z,101665.63
2022-08-25T05:04:29.275Z,101661.19
2022-08-25T05:07:02.395Z,101650.56
2022-08-25T05:09:41.302Z,101659.41
2022-08-25T05:12:18.236Z,101658.53
2022-08-25T05:14:48.685Z,101658.53
2022-08-25T05:17:19.288Z,101657.66
2022-08-25T05:19:52.426Z,101657.63
2022-08-25T05:22:22.340Z,101662.94
2022-08-25T05:24:53.886Z,101663.78
2022-08-25T05:27:39.241Z,101669.97
2022-08-25T05:30:14.817Z,101667.28
2022-08-25T05:32:50.020Z,101663.66
2022-08-25T05:35:22.557Z,101663.59
2022-08-25T05:37:52.319Z,101661.75
2022-08-25T05:40:26.091Z,101668.78
2022-08-25T05:42:58.977Z,101671.38
2022-08-25T05:45:32.697Z,101674.00
2022-08-25T05:48:07.842Z,101673.06
2022-08-25T05:50:39.477Z,101677.44
2022-08-25T05:53:09.328Z,101685.41
2022-08-25T05:55:40.982Z,101672.03
2022-08-25T05:58:13.929Z,101675.53
2022-08-25T06:00:48.520Z,101671.09
2022-08-25T06:03:15.841Z,101674.59
2022-08-25T06:05:48.019Z,101665.69
2022-08-25T06:08:20.513Z,101666.50
2022-08-25T06:10:58.005Z,101671.78
2022-08-25T06:13:39.406Z,101661.13
2022-08-25T06:16:19.068Z,101669.00
2022-08-25T06:19:04.990Z,101670.69
2022-08-25T06:21:51.140Z,101661.63
2022-08-25T06:24:38.978Z,101663.22
2022-08-25T06:27:09.022Z,101655.03
2022-08-25T06:29:44.200Z,101655.50
2022-08-25T06:32:17.425Z,101661.38
2022-08-25T06:34:54.790Z,101659.28
2022-08-25T06:37:27.627Z,101662.81
2022-08-25T06:39:58.108Z,101656.69
2022-08-25T06:42:29.532Z,101666.47
2022-08-25T06:45:15.894Z,101659.38
2022-08-25T06:47:45.759Z,101667.34
2022-08-25T06:50:16.385Z,101668.81
2022-08-25T06:52:46.022Z,101669.25
2022-08-25T06:55:16.218Z,101669.53
2022-08-25T06:57:45.964Z,101661.00
2022-08-25T07:00:19.019Z,101656.31
2022-08-25T07:02:48.838Z,101657.31
2022-08-25T07:05:33.613Z,101642.34
2022-08-25T07:08:12.103Z,101644.28
2022-08-25T07:10:42.042Z,101648.88
2022-08-25T07:13:18.385Z,101654.53
2022-08-25T07:15:50.894Z,101652.25
2022-08-25T07:18:24.489Z,101655.03
2022-08-25T07:20:54.624Z,101651.25
2022-08-25T07:23:25.005Z,101645.16
2022-08-25T07:25:55.662Z,101645.47
2022-08-25T07:28:27.671Z,101653.03
2022-08-25T07:31:07.838Z,101654.88
2022-08-25T07:34:00.316Z,101647.91
2022-08-25T07:36:31.299Z,101642.69
2022-08-25T07:39:05.509Z,101642.56
2022-08-25T07:41:42.955Z,101646.13
2022-08-25T07:44:14.583Z,101652.84
2022-08-25T07:46:47.207Z,101649.34
2022-08-25T07:49:23.123Z,101650.00
2022-08-25T07:52:05.497Z,101653.84
2022-08-25T07:54:39.924Z,101655.13
2022-08-25T07:57:12.867Z,101649.53
2022-08-25T07:59:43.610Z,101649.19
2022-08-25T08:02:18.869Z,101656.03
2022-08-25T08:04:50.802Z,101655.44
2022-08-25T08:07:22.821Z,101652.13
2022-08-25T08:10:13.627Z,101650.38
2022-08-25T08:12:45.985Z,101655.47
2022-08-25T08:15:19.397Z,101650.50
2022-08-25T08:17:51.992Z,101648.38
2022-08-25T08:20:23.483Z,101654.25
2022-08-25T08:22:56.222Z,101654.31
2022-08-25T08:25:27.991Z,101654.94
2022-08-25T08:27:58.974Z,101658.72
2022-08-25T08:30:29.104Z,101657.25
2022-08-25T08:33:12.488Z,101659.25
2022-08-25T08:35:43.719Z,101662.59
2022-08-25T08:38:20.738Z,101662.19
2022-08-25T08:41:16.040Z,101656.50
2022-08-25T08:43:46.649Z,101660.31
2022-08-25T08:46:17.645Z,101669.59
2022-08-25T08:49:04.580Z,101666.94
2022-08-25T08:51:42.195Z,101652.19
2022-08-25T08:54:20.820Z,101659.09
2022-08-25T08:56:59.030Z,101659.19
2022-08-25T08:59:36.879Z,101657.44
2022-08-25T09:02:22.113Z,101655.28
2022-08-25T09:05:15.222Z,101652.44
2022-08-25T09:07:55.045Z,101656.50
2022-08-25T09:10:29.419Z,101649.31
2022-08-25T09:13:12.588Z,101648.63
2022-08-25T09:20:04.444Z,101648.34
2022-08-25T09:23:27.610Z,101644.28
2022-08-25T09:34:08.400Z,101640.97
2022-08-25T09:43:46.006Z,101636.63
2022-08-25T09:46:24.098Z,101632.16
2022-08-25T09:49:32.492Z,101634.50
2022-08-25T09:52:29.825Z,101633.66
2022-08-25T09:55:05.286Z,101637.38
2022-08-25T09:57:46.822Z,101636.41
2022-08-25T10:00:24.288Z,101636.59
2022-08-25T10:03:10.957Z,101630.66
2022-08-25T10:05:56.354Z,101628.22
2022-08-25T10:08:35.770Z,101623.81
2022-08-25T10:11:13.311Z,101618.28
2022-08-25T10:13:46.839Z,101627.25
2022-08-25T10:16:34.106Z,101614.00
2022-08-25T10:19:11.062Z,101618.97
2022-08-25T10:21:42.913Z,101616.16
2022-08-25T10:24:18.980Z,101616.47
2022-08-25T10:27:00.051Z,101616.25
2022-08-25T10:30:04.882Z,101613.63
2022-08-25T10:33:07.146Z,101606.22
2022-08-25T10:35:56.565Z,101605.75
2022-08-25T10:38:43.122Z,101599.31
2022-08-25T10:41:39.086Z,101601.16
2022-08-25T10:44:30.331Z,101594.75
2022-08-25T10:47:34.599Z,101594.75
2022-08-25T10:50:17.316Z,101581.13
2022-08-25T10:53:13.183Z,101580.56
2022-08-25T10:55:52.988Z,101587.13
2022-08-25T10:58:34.573Z,101571.88
2022-08-25T11:01:13.852Z,101583.78
2022-08-25T11:03:52.552Z,101572.22
2022-08-25T11:06:38.047Z,101580.38
2022-08-25T11:09:13.784Z,101567.00
2022-08-25T11:11:52.408Z,101567.09
2022-08-25T11:14:25.736Z,101565.47
2022-08-25T11:17:04.515Z,101563.28
2022-08-25T11:19:40.795Z,101564.09
2022-08-25T11:22:19.332Z,101559.81
2022-08-25T11:25:05.150Z,101559.53
2022-08-25T11:27:40.686Z,101557.31
2022-08-25T11:30:15.661Z,101566.97
2022-08-25T11:32:51.368Z,101564.28
2022-08-25T11:35:29.435Z,101564.50
2022-08-25T11:38:20.914Z,101561.44
2022-08-25T11:41:10.945Z,101560.59
2022-08-25T11:44:04.290Z,101565.97
2022-08-25T11:46:57.969Z,101553.81
2022-08-25T11:49:53.076Z,101556.69
2022-08-25T11:52:56.696Z,101556.53
2022-08-25T11:55:48.504Z,101548.00
2022-08-25T11:58:34.748Z,101541.88
2022-08-25T12:01:10.666Z,101544.28
2022-08-25T12:03:55.092Z,101552.38
2022-08-25T12:06:43.382Z,101543.84
2022-08-25T12:09:22.222Z,101540.00
2022-08-25T12:11:59.008Z,101536.56
2022-08-25T12:14:48.140Z,101533.19
2022-08-25T12:17:30.665Z,101538.25
2022-08-25T12:20:05.450Z,101530.34
2022-08-25T12:23:01.464Z,101523.59
2022-08-25T12:25:47.318Z,101533.06
2022-08-25T12:28:52.868Z,101528.94
2022-08-25T12:31:41.095Z,101528.19
2022-08-25T12:34:37.398Z,101525.81
2022-08-25T12:37:15.074Z,101530.13
2022-08-25T12:39:58.819Z,101525.22
2022-08-25T12:42:38.853Z,101530.97
2022-08-25T12:45:36.576Z,101522.84
2022-08-25T12:48:39.085Z,101524.56
2022-08-25T12:51:12.058Z,101522.31
2022-08-25T12:53:50.799Z,101529.22
2022-08-25T12:56:29.413Z,101523.22
2022-08-25T12:59:15.223Z,101524.25
2022-08-25T13:02:11.034Z,101532.31
2022-08-25T13:05:06.329Z,101527.94
2022-08-25T13:08:00.590Z,101533.03
2022-08-25T13:10:49.567Z,101526.88
2022-08-25T13:13:37.512Z,101528.53
2022-08-25T13:16:12.018Z,101518.34
2022-08-25T13:18:45.366Z,101520.59
2022-08-25T13:21:23.473Z,101520.75
2022-08-25T13:24:04.663Z,101518.56
2022-08-25T13:26:48.375Z,101516.88
2022-08-25T13:29:28.735Z,101524.88
2022-08-25T13:32:12.878Z,101514.38
2022-08-25T13:34:46.906Z,101515.53
2022-08-25T13:37:36.334Z,101518.81
2022-08-25T13:40:17.827Z,101510.56
2022-08-25T13:42:56.095Z,101503.78
2022-08-25T13:45:41.090Z,101505.88
2022-08-25T13:48:22.440Z,101500.06
2022-08-25T13:50:55.999Z,101505.13
2022-08-25T13:53:31.735Z,101503.53
2022-08-25T13:56:10.663Z,101502.66
2022-08-25T13:58:54.195Z,101497.03
2022-08-25T14:01:48.634Z,101507.25
2022-08-25T14:04:50.724Z,101498.81
2022-08-25T14:07:58.784Z,101495.78
2022-08-25T14:10:43.125Z,101494.69
2022-08-25T14:13:17.447Z,101495.53
2022-08-25T14:15:48.862Z,101496.22
2022-08-25T14:18:26.894Z,101491.31
2022-08-25T14:21:02.613Z,101487.31
2022-08-25T14:23:37.654Z,101486.88
2022-08-25T14:26:10.566Z,101482.22
2022-08-25T14:28:41.649Z,101477.81
2022-08-25T14:31:16.213Z,101484.91
2022-08-25T14:33:54.979Z,101484.91
2022-08-25T14:36:29.002Z,101491.22
2022-08-25T14:39:08.665Z,101484.47
2022-08-25T14:41:41.193Z,101488.53
2022-08-25T14:44:12.957Z,101483.41
2022-08-25T14:46:48.488Z,101499.06
2022-08-25T14:49:24.943Z,101494.25
2022-08-25T14:51:56.052Z,101492.28
2022-08-25T14:54:37.680Z,101489.38
2022-08-25T14:57:13.006Z,101493.88
2022-08-25T14:59:43.159Z,101500.59
2022-08-25T15:02:19.916Z,101505.16
2022-08-25T15:04:55.524Z,101496.34
2022-08-25T15:07:37.944Z,101504.22
2022-08-25T15:10:14.771Z,101509.13
2022-08-25T15:12:47.784Z,101510.16
2022-08-25T15:15:18.347Z,101505.66
2022-08-25T15:17:55.093Z,101513.88
2022-08-25T15:20:29.505Z,101523.78
2022-08-25T15:23:00.621Z,101514.00
2022-08-25T15:25:35.957Z,101520.19
2022-08-25T15:28:10.103Z,101516.50
2022-08-25T15:30:44.496Z,101521.41
2022-08-25T15:33:15.531Z,101522.63
2022-08-25T15:35:45.582Z,101520.91
2022-08-25T15:38:15.555Z,101514.50
2022-08-25T15:40:48.700Z,101517.28
2022-08-25T15:43:18.506Z,101519.03
2022-08-25T15:45:48.429Z,101523.53
2022-08-25T15:48:20.855Z,101522.13
2022-08-25T15:50:52.253Z,101514.53
2022-08-25T15:53:22.667Z,101521.50
2022-08-25T15:55:58.025Z,101513.69
2022-08-25T15:58:37.507Z,101518.91
2022-08-25T16:01:16.758Z,101519.59
2022-08-25T16:03:49.470Z,101522.00
2022-08-25T16:06:20.102Z,101533.44
2022-08-25T16:08:50.847Z,101522.31
2022-08-25T16:11:30.921Z,101514.88
2022-08-25T16:14:02.350Z,101517.72
2022-08-25T16:16:37.859Z,101523.47
2022-08-25T16:19:10.654Z,101521.66
2022-08-25T16:21:42.269Z,101528.13
2022-08-25T16:24:17.032Z,101523.09
2022-08-25T16:26:50.405Z,101522.66
2022-08-25T16:29:22.846Z,101522.66
2022-08-25T16:31:55.132Z,101522.53
2022-08-25T16:34:28.721Z,101521.16
2022-08-25T16:37:05.011Z,101512.69
2022-08-25T16:39:44.226Z,101513.00
2022-08-25T16:42:16.717Z,101515.31
2022-08-25T16:44:46.869Z,101515.25
2022-08-25T16:47:17.792Z,101519.66
2022-08-25T16:49:52.274Z,101521.66
2022-08-25T16:52:35.537Z,101515.09
2022-08-25T16:55:17.875Z,101516.63
2022-08-25T16:57:53.869Z,101519.25
2022-08-25T17:00:29.604Z,101510.91
2022-08-25T17:03:04.534Z,101517.41
2022-08-25T17:05:38.403Z,101519.38
2022-08-25T17:08:20.939Z,101523.56
2022-08-25T17:10:50.825Z,101514.00
2022-08-25T17:13:23.274Z,101517.16
2022-08-25T17:15:53.079Z,101509.94
2022-08-25T17:18:22.929Z,101513.91
2022-08-25T17:21:06.780Z,101517.16
2022-08-25T17:23:40.013Z,101523.09
2022-08-25T17:26:14.219Z,101525.88
2022-08-25T17:28:48.004Z,101523.16
2022-08-25T17:31:19.076Z,101519.81
2022-08-25T17:33:49.398Z,101526.25
2022-08-25T17:36:19.297Z,101526.38
2022-08-25T17:38:50.623Z,101518.66
2022-08-25T17:41:21.183Z,101522.03
2022-08-25T17:43:53.747Z,101528.72
2022-08-25T17:46:24.489Z,101530.66
2022-08-25T17:48:57.759Z,101540.06
2022-08-25T17:51:31.799Z,101545.34
2022-08-25T17:54:05.270Z,101543.47
2022-08-25T17:56:35.535Z,101552.31
2022-08-25T17:59:08.146Z,101552.91
2022-08-25T18:01:42.435Z,101560.00
2022-08-25T18:04:17.908Z,101560.31
2022-08-25T18:06:51.760Z,101559.63
2022-08-25T18:09:21.478Z,101570.53
2022-08-25T18:11:52.554Z,101566.25
2022-08-25T18:14:25.791Z,101573.19
2022-08-25T18:16:56.759Z,101575.00
2022-08-25T18:19:26.851Z,101583.06
2022-08-25T18:21:56.614Z,101584.91
2022-08-25T18:24:29.383Z,101579.91
2022-08-25T18:27:00.160Z,101589.91
2022-08-25T18:29:41.801Z,101577.63
2022-08-25T18:32:13.336Z,101579.47
2022-08-25T18:34:43.295Z,101591.03
2022-08-25T18:37:28.750Z,101588.69
2022-08-25T18:40:14.391Z,101591.50
2022-08-25T18:42:44.351Z,101592.41
2022-08-25T18:45:17.122Z,101590.59
2022-08-25T18:47:47.583Z,101595.41
2022-08-25T18:50:17.540Z,101602.34
2022-08-25T18:52:49.767Z,101609.47
2022-08-25T18:55:27.157Z,101613.13
2022-08-25T18:58:01.493Z,101614.88
2022-08-25T19:00:41.790Z,101622.22
2022-08-25T19:03:14.201Z,101629.38
2022-08-25T19:05:55.019Z,101629.38
2022-08-25T19:08:29.713Z,101633.81
2022-08-25T19:11:05.147Z,101638.28
2022-08-25T19:13:41.120Z,101639.28
2022-08-25T19:16:20.370Z,101633.88
2022-08-25T19:18:52.273Z,101646.38
2022-08-25T19:21:23.960Z,101655.41
2022-08-25T19:23:54.761Z,101649.13
2022-08-25T19:26:25.762Z,101657.22
2022-08-25T19:29:04.718Z,101656.16
2022-08-25T19:31:44.722Z,101663.41
2022-08-25T19:34:21.781Z,101665.25
2022-08-25T19:36:51.794Z,101667.84
2022-08-25T19:39:22.036Z,101672.28
2022-08-25T19:41:57.082Z,101668.84
2022-08-25T19:44:28.087Z,101670.56
2022-08-25T19:47:03.972Z,101676.88
2022-08-25T19:49:40.221Z,101677.84
2022-08-25T19:52:16.881Z,101681.47
2022-08-25T19:54:48.826Z,101682.47
2022-08-25T19:57:27.881Z,101683.25
2022-08-25T19:59:59.003Z,101689.63
2022-08-25T20:02:36.058Z,101702.94
2022-08-25T20:05:08.094Z,101699.41
2022-08-25T20:07:41.057Z,101695.81
2022-08-25T20:10:14.574Z,101693.16
2022-08-25T20:12:45.738Z,101688.66
2022-08-25T20:15:17.401Z,101699.34
2022-08-25T20:17:50.150Z,101697.59
2022-08-25T20:20:32.459Z,101703.81
2022-08-25T20:23:22.876Z,101703.00
2022-08-25T20:26:00.181Z,101710.03
2022-08-25T20:28:29.874Z,101710.13
2022-08-25T20:31:00.322Z,101717.25
2022-08-25T20:33:35.135Z,101719.91
2022-08-25T20:36:06.071Z,101719.00
2022-08-25T20:38:41.158Z,101719.00
2022-08-25T20:41:12.874Z,101717.28
2022-08-25T20:43:43.648Z,101713.72
2022-08-25T20:46:14.169Z,101720.81
2022-08-25T20:48:46.716Z,101722.63
2022-08-25T20:51:18.443Z,101723.50
2022-08-25T20:53:48.913Z,101718.22
2022-08-25T20:56:21.166Z,101722.63
2022-08-25T20:58:51.585Z,101718.22
2022-08-25T21:01:24.009Z,101728.84
2022-08-25T21:03:57.517Z,101733.34
2022-08-25T21:06:28.037Z,101731.50
2022-08-25T21:09:01.518Z,101730.78
2022-08-25T21:11:31.665Z,101724.56
2022-08-25T21:14:06.055Z,101731.69
2022-08-25T21:16:38.877Z,101727.19
2022-08-25T21:19:12.539Z,101734.34
2022-08-25T21:21:42.014Z,101734.31
2022-08-25T21:24:13.870Z,101733.50
2022-08-25T21:26:48.435Z,101738.91
2022-08-25T21:29:20.633Z,101746.00
2022-08-25T21:31:51.792Z,101742.47
2022-08-25T21:34:24.755Z,101735.34
2022-08-25T21:36:58.329Z,101737.13
2022-08-25T21:39:36.955Z,101747.91
2022-08-25T21:44:40.750Z,101744.41
2022-08-25T21:47:11.847Z,101746.16
2022-08-25T21:49:44.798Z,101753.22
2022-08-25T21:52:16.683Z,101751.44
2022-08-25T21:54:47.495Z,101744.44
2022-08-25T21:57:19.026Z,101749.72
2022-08-25T21:59:49.399Z,101753.31
2022-08-25T22:02:22.506Z,101749.78
2022-08-25T22:04:56.102Z,101753.28
2022-08-25T22:07:26.954Z,101760.41
2022-08-25T22:09:56.740Z,101764.97
2022-08-25T22:12:29.592Z,101753.34
2022-08-25T22:15:01.794Z,101756.94
2022-08-25T22:17:31.530Z,101753.41
2022-08-25T22:20:06.334Z,101760.59
2022-08-25T22:22:40.424Z,101751.63
2022-08-25T22:25:10.790Z,101756.94
2022-08-25T22:27:40.883Z,101765.84
2022-08-25T22:30:14.714Z,101769.38
2022-08-25T22:32:45.439Z,101765.91
2022-08-25T22:35:18.662Z,101776.47
2022-08-25T22:37:49.878Z,101771.16
2022-08-25T22:40:20.099Z,101766.81
2022-08-25T22:42:50.644Z,101767.69
2022-08-25T22:45:20.727Z,101764.19
2022-08-25T22:47:52.296Z,101761.53
2022-08-25T22:50:25.099Z,101761.53
2022-08-25T22:52:55.690Z,101766.00
2022-08-25T22:55:25.605Z,101774.88
2022-08-25T22:58:01.161Z,101776.66
2022-08-25T23:00:36.487Z,101773.09
2022-08-25T23:03:10.145Z,101778.41
2022-08-25T23:05:44.191Z,101770.41
2022-08-25T23:08:15.189Z,101774.84
2022-08-25T23:11:01.873Z,101767.75
2022-08-25T23:13:34.108Z,101769.53
2022-08-25T23:16:07.321Z,101778.41
2022-08-25T23:18:43.814Z,101772.19
2022-08-25T23:21:30.020Z,101776.66
2022-08-25T23:24:11.141Z,101779.25
2022-08-25T23:26:41.866Z,101781.03
2022-08-25T23:29:18.452Z,101774.88
2022-08-25T23:31:50.134Z,101772.25
2022-08-25T23:34:19.970Z,101766.91
2022-08-25T23:36:52.332Z,101770.50
2022-08-25T23:39:22.313Z,101782.94
2022-08-25T23:41:52.642Z,101781.16
2022-08-25T23:44:24.431Z,101778.47
2022-08-25T23:46:55.521Z,101782.91
2022-08-25T23:49:30.006Z,101772.31
2022-08-25T23:52:05.690Z,101775.00
2022-08-25T23:54:37.754Z,101774.09
2022-08-25T23:57:10.545Z,101770.53
2022-08-25T23:59:40.664Z,101774.97
